Time;durP1;ratioP1;P1;durP2;ratioP2;P2;SDS_P1;SDS_P2;PMS_P1;PMS_P2;Temp;Humidity;BMP_temperature;BMP_pressure;BME280_temperature;BME280_humidity;BME280_pressure;Samples;Min_cycle;Max_cycle;Signal;HPM_P1;HPM_P2
2023/03/12 00:00:41;;;;;;;24.07;11.00;;;-1.10;99.90;;;;;;5067974;28;20119;-76
2023/03/12 00:03:07;;;;;;;20.20;9.40;;;-1.10;99.90;;;;;;5067506;28;20044;-76
2023/03/12 00:05:35;;;;;;;20.17;8.67;;;-1.10;99.90;;;;;;5067029;28;20095;-77
2023/03/12 00:08:01;;;;;;;26.73;13.03;;;-1.10;99.90;;;;;;5047675;28;20048;-78
2023/03/12 00:10:26;;;;;;;22.67;10.37;;;-1.10;99.90;;;;;;5050214;28;20044;-76
2023/03/12 00:12:52;;;;;;;14.20;7.17;;;-1.10;99.90;;;;;;5047773;28;20044;-77
2023/03/12 00:15:18;;;;;;;12.67;7.50;;;-1.10;99.90;;;;;;5067686;28;20436;-76
2023/03/12 00:17:43;;;;;;;18.53;8.90;;;-1.10;99.90;;;;;;5049042;28;20058;-76
2023/03/12 00:20:11;;;;;;;17.57;8.67;;;-1.10;99.90;;;;;;5066593;28;20447;-76
2023/03/12 00:22:36;;;;;;;17.83;6.67;;;-1.10;99.90;;;;;;5030076;28;20044;-76
2023/03/12 00:25:05;;;;;;;17.87;9.00;;;-0.70;99.90;;;;;;5056143;28;20036;-77
2023/03/12 00:27:30;;;;;;;39.40;18.70;;;-1.20;99.90;;;;;;5033186;28;20040;-77
2023/03/12 00:29:56;;;;;;;25.33;12.40;;;-1.20;99.90;;;;;;5049901;28;20051;-76
2023/03/12 00:32:22;;;;;;;33.43;15.93;;;-1.20;99.90;;;;;;5048757;28;20060;-76
2023/03/12 00:34:54;;;;;;;27.63;15.00;;;-1.20;99.90;;;;;;5067135;28;20449;-76
2023/03/12 00:37:21;;;;;;;30.40;16.50;;;-1.20;99.90;;;;;;5034628;28;20047;-76
2023/03/12 00:39:47;;;;;;;27.00;12.43;;;-1.10;99.90;;;;;;5071034;28;20131;-76
2023/03/12 00:42:13;;;;;;;15.30;8.90;;;-1.00;99.90;;;;;;5070344;28;20037;-76
2023/03/12 00:44:38;;;;;;;19.23;9.33;;;-1.10;99.90;;;;;;5071321;28;20093;-76
2023/03/12 00:47:04;;;;;;;23.03;8.40;;;-1.20;99.90;;;;;;5053167;28;20036;-76
2023/03/12 00:49:30;;;;;;;24.60;10.97;;;-1.10;99.90;;;;;;5071530;28;20552;-76
2023/03/12 00:51:56;;;;;;;26.40;12.27;;;-1.00;99.90;;;;;;5066308;28;20418;-76
2023/03/12 00:54:22;;;;;;;26.63;11.97;;;-1.20;99.90;;;;;;5070224;28;20059;-77
2023/03/12 00:56:47;;;;;;;26.13;12.13;;;-1.20;99.90;;;;;;5056153;28;20115;-76
2023/03/12 00:59:14;;;;;;;32.23;15.43;;;-1.20;99.90;;;;;;5052529;28;20127;-78
2023/03/12 01:01:41;;;;;;;13.47;6.77;;;-1.20;99.90;;;;;;5054017;28;20038;-77
2023/03/12 01:04:06;;;;;;;57.17;23.60;;;-1.30;99.90;;;;;;5051836;28;20312;-77
2023/03/12 01:06:32;;;;;;;17.37;7.87;;;-1.20;99.90;;;;;;5057236;28;20098;-76
2023/03/12 01:08:59;;;;;;;18.63;9.23;;;-1.20;99.90;;;;;;5050894;28;20037;-78
2023/03/12 01:11:25;;;;;;;16.47;9.87;;;-0.60;99.90;;;;;;5070596;28;20048;-78
2023/03/12 01:13:51;;;;;;;20.07;11.93;;;-1.30;99.90;;;;;;5051938;28;20095;-78
2023/03/12 01:16:16;;;;;;;11.80;8.43;;;-1.20;99.90;;;;;;5061547;28;20044;-76
2023/03/12 01:18:42;;;;;;;17.57;11.67;;;-1.20;99.90;;;;;;5066212;28;20474;-77
2023/03/12 01:21:08;;;;;;;14.83;9.23;;;-1.30;99.90;;;;;;5071914;28;20111;-77
2023/03/12 01:23:34;;;;;;;14.37;7.80;;;-1.20;99.90;;;;;;5070743;28;20052;-77
2023/03/12 01:25:59;;;;;;;16.50;12.67;;;-1.20;99.90;;;;;;5070660;28;20037;-74
2023/03/12 01:28:25;;;;;;;22.37;11.00;;;-1.30;99.90;;;;;;5054974;28;20386;-74
2023/03/12 01:30:51;;;;;;;21.00;12.23;;;-1.20;99.90;;;;;;5071309;28;20037;-75
2023/03/12 01:33:17;;;;;;;14.80;8.17;;;-1.30;99.90;;;;;;5054888;28;20041;-74
2023/03/12 01:35:43;;;;;;;13.33;7.70;;;-1.30;99.90;;;;;;5032081;28;20041;-73
2023/03/12 01:38:14;;;;;;;20.83;9.10;;;-1.30;99.90;;;;;;5055490;28;20048;-74
2023/03/12 01:40:41;;;;;;;8.05;4.85;;;-1.30;99.90;;;;;;5051348;28;20516;-74
2023/03/12 01:43:25;;;;;;;15.53;6.20;;;-1.40;99.90;;;;;;5069587;28;20044;-76
2023/03/12 01:46:24;;;;;;;10.50;5.40;;;-1.50;99.90;;;;;;5069976;28;20127;-76
2023/03/12 01:49:01;;;;;;;10.23;5.83;;;-1.60;99.90;;;;;;5064677;28;20439;-77
2023/03/12 01:51:51;;;;;;;13.73;6.20;;;-1.60;99.90;;;;;;5053005;28;20049;-74
2023/03/12 01:54:36;;;;;;;12.23;6.10;;;-1.60;99.90;;;;;;5050690;28;20036;-78
2023/03/12 01:57:04;;;;;;;13.30;6.13;;;-1.60;99.90;;;;;;5035509;28;20478;-74
2023/03/12 01:59:37;;;;;;;9.63;5.53;;;-1.50;99.90;;;;;;5050576;28;20053;-77
2023/03/12 02:02:04;;;;;;;13.37;6.33;;;-1.40;99.90;;;;;;5068566;28;20054;-77
2023/03/12 02:04:31;;;;;;;17.40;6.60;;;-1.40;99.90;;;;;;5052946;28;20071;-78
2023/03/12 02:07:11;;;;;;;12.97;6.40;;;-1.40;99.90;;;;;;5054744;28;20071;-77
2023/03/12 02:09:40;;;;;;;10.73;6.93;;;-1.30;99.90;;;;;;5048709;28;20045;-80
2023/03/12 02:12:08;;;;;;;13.50;6.77;;;-1.30;99.90;;;;;;5069956;28;20094;-73
2023/03/12 02:14:33;;;;;;;14.27;7.00;;;-1.20;99.90;;;;;;5053194;28;20748;-77
2023/03/12 02:16:59;;;;;;;12.73;6.67;;;-1.20;99.90;;;;;;5055330;28;20098;-78
2023/03/12 02:19:44;;;;;;;13.23;6.60;;;-1.10;99.90;;;;;;5069649;28;20056;-75
2023/03/12 02:22:11;;;;;;;14.30;6.57;;;-1.10;99.90;;;;;;5068889;28;20060;-79
2023/03/12 02:24:48;;;;;;;12.63;6.07;;;-1.00;99.90;;;;;;5070544;28;20070;-74
2023/03/12 02:27:16;;;;;;;15.40;6.60;;;-1.00;99.90;;;;;;5053595;28;20040;-75
2023/03/12 02:29:44;;;;;;;13.40;6.33;;;-1.00;99.90;;;;;;5051216;28;20630;-74
2023/03/12 02:32:24;;;;;;;14.10;6.30;;;-0.20;99.90;;;;;;5069256;28;20047;-74
2023/03/12 02:34:50;;;;;;;11.43;6.50;;;-0.90;99.90;;;;;;5067538;28;20036;-73
2023/03/12 02:37:16;;;;;;;12.87;6.17;;;-0.90;99.90;;;;;;5055574;28;20666;-74
2023/03/12 02:39:45;;;;;;;12.63;6.30;;;-0.90;99.90;;;;;;5068887;28;20044;-74
2023/03/12 02:42:12;;;;;;;15.67;6.60;;;-0.80;99.90;;;;;;5069012;28;20492;-76
2023/03/12 02:44:37;;;;;;;10.93;5.97;;;-0.80;99.90;;;;;;5051241;28;20033;-75
2023/03/12 02:47:04;;;;;;;13.53;6.40;;;-0.90;99.90;;;;;;5053416;28;20381;-75
2023/03/12 02:49:32;;;;;;;9.20;5.70;;;-0.90;99.90;;;;;;5052505;28;20040;-76
2023/03/12 02:51:58;;;;;;;11.93;6.03;;;-0.90;99.90;;;;;;5069810;28;20041;-78
2023/03/12 02:54:25;;;;;;;9.53;5.40;;;-0.40;99.90;;;;;;5050429;28;20094;-76
2023/03/12 02:56:51;;;;;;;13.20;5.33;;;-0.80;99.90;;;;;;5054818;28;20046;-76
2023/03/12 02:59:19;;;;;;;15.07;6.17;;;-0.80;99.90;;;;;;5050760;28;20041;-76
2023/03/12 03:01:45;;;;;;;14.23;5.50;;;-0.80;99.90;;;;;;5051976;28;20037;-76
2023/03/12 03:04:11;;;;;;;12.53;5.50;;;-0.70;99.90;;;;;;5050069;28;20425;-76
2023/03/12 03:06:40;;;;;;;14.90;5.80;;;-0.60;99.90;;;;;;5036760;28;20075;-76
2023/03/12 03:09:06;;;;;;;11.37;5.97;;;-0.60;99.90;;;;;;5066571;28;20132;-74
2023/03/12 03:11:32;;;;;;;10.70;5.57;;;-0.20;99.90;;;;;;5051172;28;20036;-74
2023/03/12 03:13:57;;;;;;;10.50;4.97;;;-0.60;99.90;;;;;;5050414;28;20086;-74
2023/03/12 03:16:23;;;;;;;11.03;5.40;;;-0.70;99.90;;;;;;5057389;28;20545;-75
2023/03/12 03:18:49;;;;;;;9.97;5.03;;;-0.70;99.90;;;;;;5064517;28;20449;-75
2023/03/12 03:21:15;;;;;;;7.63;4.77;;;-0.80;99.90;;;;;;5069538;28;20071;-74
2023/03/12 03:23:46;;;;;;;12.90;5.03;;;-0.80;99.90;;;;;;5068628;28;20397;-74
2023/03/12 03:26:13;;;;;;;9.60;4.15;;;-0.80;99.90;;;;;;5060177;28;20036;-74
2023/03/12 03:28:39;;;;;;;10.33;5.17;;;-0.80;99.90;;;;;;5062119;28;20047;-74
2023/03/12 03:31:05;;;;;;;12.60;5.40;;;-0.80;99.90;;;;;;5068763;28;20435;-74
2023/03/12 03:33:33;;;;;;;10.13;5.07;;;-0.80;99.90;;;;;;5050805;28;20093;-74
2023/03/12 03:36:00;;;;;;;11.17;5.70;;;-0.70;99.90;;;;;;5051687;28;20055;-74
2023/03/12 03:38:27;;;;;;;9.97;5.40;;;-0.70;99.90;;;;;;5035654;28;20040;-75
2023/03/12 03:40:53;;;;;;;11.37;4.97;;;-0.60;99.90;;;;;;5068966;28;20036;-74
2023/03/12 03:43:19;;;;;;;11.10;5.90;;;-0.70;99.90;;;;;;5067736;28;20037;-74
2023/03/12 03:45:45;;;;;;;9.93;5.73;;;-0.20;99.90;;;;;;5068867;28;20036;-74
2023/03/12 03:48:11;;;;;;;9.43;5.77;;;-0.10;99.90;;;;;;5052368;28;20485;-75
2023/03/12 03:50:38;;;;;;;11.83;6.13;;;-0.60;99.90;;;;;;5069312;28;20584;-74
2023/03/12 03:53:04;;;;;;;16.33;6.57;;;-0.60;99.90;;;;;;5068475;28;20040;-74
2023/03/12 03:55:30;;;;;;;13.30;6.70;;;-0.60;99.90;;;;;;5050601;28;20121;-75
2023/03/12 03:57:56;;;;;;;13.73;6.57;;;-0.60;99.90;;;;;;5052551;28;20518;-74
2023/03/12 04:00:22;;;;;;;13.87;7.00;;;-0.40;99.90;;;;;;5069244;28;20041;-74
2023/03/12 04:02:47;;;;;;;11.97;7.33;;;-0.60;99.90;;;;;;5047554;28;20669;-75
2023/03/12 04:05:14;;;;;;;10.77;6.47;;;-0.60;99.90;;;;;;5068362;28;20036;-74
2023/03/12 04:07:40;;;;;;;14.50;7.77;;;-0.60;99.90;;;;;;5051987;28;20045;-74
2023/03/12 04:10:06;;;;;;;12.70;6.80;;;-0.50;99.90;;;;;;5067842;28;20033;-74
2023/03/12 04:12:32;;;;;;;12.27;7.07;;;-0.50;99.90;;;;;;5050558;28;20051;-75
2023/03/12 04:14:58;;;;;;;11.80;6.83;;;-0.50;99.90;;;;;;5073130;28;20390;-74
2023/03/12 04:17:24;;;;;;;12.67;6.53;;;-0.40;99.90;;;;;;5056303;28;20055;-74
2023/03/12 04:19:49;;;;;;;11.23;6.80;;;-0.40;99.90;;;;;;5073194;28;20032;-75
2023/03/12 04:22:15;;;;;;;11.93;6.90;;;-0.30;99.90;;;;;;5071763;28;20033;-75
2023/03/12 04:24:41;;;;;;;13.80;6.10;;;0.30;99.90;;;;;;5072228;28;20066;-74
2023/03/12 04:27:06;;;;;;;10.43;5.90;;;-0.40;99.90;;;;;;5056933;28;20067;-74
2023/03/12 04:29:32;;;;;;;12.53;6.40;;;-0.30;99.90;;;;;;5069932;28;20428;-74
2023/03/12 04:31:58;;;;;;;9.50;5.70;;;-0.30;99.90;;;;;;5048090;28;20044;-74
2023/03/12 04:34:23;;;;;;;12.33;5.37;;;-0.30;99.90;;;;;;5068338;28;20524;-77
2023/03/12 04:36:49;;;;;;;9.10;5.67;;;-0.20;99.90;;;;;;5053057;28;20044;-77
2023/03/12 04:39:19;;;;;;;8.27;4.97;;;-0.20;99.90;;;;;;5068210;28;20032;-75
2023/03/12 04:41:45;;;;;;;10.27;5.23;;;0.20;99.90;;;;;;5050645;28;20041;-75
2023/03/12 04:44:11;;;;;;;10.63;5.50;;;0.00;99.90;;;;;;5068371;28;20040;-76
2023/03/12 04:46:37;;;;;;;10.07;5.07;;;-0.10;99.90;;;;;;5055284;28;20028;-75
2023/03/12 04:49:03;;;;;;;10.13;5.10;;;-0.10;99.90;;;;;;5053977;28;20043;-75
2023/03/12 04:51:30;;;;;;;11.87;5.60;;;-0.10;99.90;;;;;;5033302;28;20136;-75
2023/03/12 04:53:57;;;;;;;10.43;5.23;;;0.20;99.90;;;;;;5031457;28;20421;-74
2023/03/12 04:56:23;;;;;;;12.57;5.60;;;0.40;99.90;;;;;;5056420;28;20040;-74
2023/03/12 04:58:49;;;;;;;11.00;5.37;;;-0.10;99.90;;;;;;5065297;28;20119;-73
2023/03/12 05:01:27;;;;;;;11.03;4.90;;;0.20;99.90;;;;;;5068220;28;20040;-74
2023/03/12 05:03:53;;;;;;;10.40;5.27;;;-0.20;99.90;;;;;;5067647;28;20036;-74
2023/03/12 05:06:20;;;;;;;10.10;5.23;;;0.10;99.90;;;;;;5039855;28;20032;-76
2023/03/12 05:08:46;;;;;;;13.67;5.50;;;0.50;99.90;;;;;;5063379;28;20040;-75
2023/03/12 05:11:13;;;;;;;10.37;4.63;;;-0.20;99.90;;;;;;5068207;28;20047;-74
2023/03/12 05:13:39;;;;;;;9.73;5.40;;;-0.20;99.90;;;;;;5066758;28;20044;-74
2023/03/12 05:16:05;;;;;;;11.13;5.17;;;0.60;99.90;;;;;;5048502;28;20044;-77
2023/03/12 05:18:30;;;;;;;11.90;5.47;;;-0.10;99.90;;;;;;5055914;28;20052;-80
2023/03/12 05:21:00;;;;;;;13.87;4.80;;;-0.10;99.90;;;;;;5068779;28;20371;-78
2023/03/12 05:23:26;;;;;;;9.23;4.97;;;-0.10;99.90;;;;;;5066953;28;20044;-77
2023/03/12 05:25:52;;;;;;;12.33;5.17;;;0.00;99.90;;;;;;5064434;28;20048;-78
2023/03/12 05:28:19;;;;;;;7.23;4.70;;;0.00;99.90;;;;;;5029105;28;20128;-75
2023/03/12 05:30:45;;;;;;;10.23;5.20;;;0.00;99.90;;;;;;5068169;28;20082;-75
2023/03/12 05:33:11;;;;;;;7.93;5.03;;;0.60;99.90;;;;;;5066838;28;20048;-74
2023/03/12 05:35:37;;;;;;;10.63;5.00;;;0.10;99.90;;;;;;5068262;28;20044;-74
2023/03/12 05:38:03;;;;;;;10.07;4.70;;;0.20;99.90;;;;;;5033762;28;20047;-74
2023/03/12 05:40:29;;;;;;;12.90;5.10;;;0.20;99.90;;;;;;5067092;28;20050;-74
2023/03/12 05:42:54;;;;;;;8.37;4.60;;;0.20;99.90;;;;;;5064919;28;20045;-76
2023/03/12 05:45:20;;;;;;;10.03;4.43;;;0.20;99.90;;;;;;5043327;28;20072;-74
2023/03/12 05:47:46;;;;;;;9.90;5.07;;;0.30;99.90;;;;;;5051329;28;20102;-75
2023/03/12 05:50:12;;;;;;;9.13;4.93;;;0.30;99.90;;;;;;5049495;28;20040;-76
2023/03/12 05:52:38;;;;;;;11.70;4.97;;;0.30;99.90;;;;;;5048301;28;20041;-75
2023/03/12 05:55:04;;;;;;;10.27;5.60;;;0.30;99.90;;;;;;5048995;28;20513;-76
2023/03/12 05:57:29;;;;;;;10.40;4.87;;;0.30;99.90;;;;;;5048914;28;20378;-76
2023/03/12 05:59:55;;;;;;;13.30;5.10;;;0.30;99.90;;;;;;5067103;28;20047;-74
2023/03/12 06:02:21;;;;;;;8.60;4.70;;;1.10;99.90;;;;;;5065706;28;20505;-74
2023/03/12 06:04:46;;;;;;;10.37;5.07;;;0.70;99.90;;;;;;5064986;28;20109;-76
2023/03/12 06:07:12;;;;;;;10.97;5.33;;;0.30;99.90;;;;;;5049706;28;20040;-76
2023/03/12 06:09:38;;;;;;;14.53;5.13;;;0.40;99.90;;;;;;5030382;28;20037;-75
2023/03/12 06:12:04;;;;;;;11.87;5.20;;;0.40;99.90;;;;;;5058426;28;20080;-74
2023/03/12 06:14:29;;;;;;;11.67;5.07;;;0.30;99.90;;;;;;5067097;28;20055;-75
2023/03/12 06:16:55;;;;;;;11.20;5.23;;;0.40;99.90;;;;;;5048805;28;20072;-76
2023/03/12 06:19:21;;;;;;;9.10;5.03;;;0.90;99.90;;;;;;5029026;28;20494;-74
2023/03/12 06:21:46;;;;;;;11.87;5.60;;;0.40;99.90;;;;;;5069496;28;20041;-75
2023/03/12 06:24:12;;;;;;;7.90;4.80;;;0.40;99.90;;;;;;5066879;28;20037;-75
2023/03/12 06:26:39;;;;;;;11.37;5.20;;;0.40;99.90;;;;;;5053411;28;20095;-74
2023/03/12 06:29:05;;;;;;;10.33;5.37;;;0.50;99.90;;;;;;5036024;28;20102;-74
2023/03/12 06:31:30;;;;;;;8.93;5.43;;;0.50;99.90;;;;;;5067487;28;20056;-75
2023/03/12 06:33:56;;;;;;;9.03;4.90;;;0.50;99.90;;;;;;5066630;28;20037;-75
2023/03/12 06:36:22;;;;;;;12.73;5.53;;;0.50;99.90;;;;;;5057793;28;20045;-75
2023/03/12 06:38:48;;;;;;;9.30;4.83;;;0.50;99.90;;;;;;5048895;28;20040;-74
2023/03/12 06:41:16;;;;;;;11.30;5.10;;;0.50;99.90;;;;;;5070449;28;20418;-74
2023/03/12 06:43:43;;;;;;;9.80;5.43;;;0.60;99.90;;;;;;5069298;28;20454;-74
2023/03/12 06:46:11;;;;;;;12.13;5.60;;;0.50;99.90;;;;;;5063066;28;20047;-77
2023/03/12 06:48:40;;;;;;;9.20;5.30;;;0.90;99.90;;;;;;5063188;28;20116;-74
2023/03/12 06:51:07;;;;;;;11.80;5.77;;;1.00;99.90;;;;;;5069823;28;20036;-74
2023/03/12 06:53:33;;;;;;;10.57;5.23;;;0.60;99.90;;;;;;5068387;28;20475;-76
2023/03/12 06:55:59;;;;;;;12.37;6.27;;;1.20;99.90;;;;;;5051643;28;20044;-74
2023/03/12 06:58:25;;;;;;;12.90;5.80;;;0.60;99.90;;;;;;5053169;28;20493;-75
2023/03/12 07:00:52;;;;;;;10.27;5.80;;;0.60;99.90;;;;;;5070066;28;20036;-74
2023/03/12 07:03:18;;;;;;;11.27;5.50;;;0.90;99.90;;;;;;5050773;28;20078;-74
2023/03/12 07:05:48;;;;;;;11.23;5.40;;;0.60;99.90;;;;;;5069648;28;20048;-75
2023/03/12 07:08:14;;;;;;;12.37;5.83;;;0.60;99.90;;;;;;5031949;28;20535;-74
2023/03/12 07:10:40;;;;;;;16.47;6.23;;;0.70;99.90;;;;;;5068584;28;20064;-76
2023/03/12 07:13:06;;;;;;;16.47;5.90;;;1.10;99.90;;;;;;5068445;28;20040;-75
2023/03/12 07:15:33;;;;;;;16.87;6.60;;;0.80;99.90;;;;;;5049202;28;20040;-74
2023/03/12 07:18:00;;;;;;;11.63;7.03;;;0.70;99.90;;;;;;5033809;28;20381;-76
2023/03/12 07:20:26;;;;;;;14.50;7.17;;;1.20;99.90;;;;;;5067447;28;20052;-75
2023/03/12 07:22:51;;;;;;;11.93;7.60;;;1.20;99.90;;;;;;5067651;28;20141;-74
2023/03/12 07:25:17;;;;;;;14.57;7.30;;;0.60;99.90;;;;;;5050444;28;20036;-75
2023/03/12 07:27:43;;;;;;;18.43;8.27;;;0.60;99.90;;;;;;5052230;28;20049;-74
2023/03/12 07:30:09;;;;;;;15.83;8.30;;;0.60;99.90;;;;;;5068397;28;20498;-74
2023/03/12 07:32:35;;;;;;;17.30;9.23;;;0.60;99.90;;;;;;5066703;28;20057;-75
2023/03/12 07:35:02;;;;;;;16.93;9.93;;;0.50;99.90;;;;;;5050511;28;20040;-74
2023/03/12 07:37:28;;;;;;;17.90;11.57;;;0.40;99.90;;;;;;5035000;28;20044;-75
2023/03/12 07:39:54;;;;;;;17.77;11.67;;;0.30;99.90;;;;;;5068448;28;20040;-75
2023/03/12 07:42:20;;;;;;;22.90;13.20;;;0.30;99.90;;;;;;5067336;28;20382;-74
2023/03/12 07:44:46;;;;;;;25.40;13.63;;;0.30;99.90;;;;;;5069417;28;20098;-74
2023/03/12 07:47:12;;;;;;;28.00;14.60;;;0.50;99.90;;;;;;5051051;28;20036;-74
2023/03/12 07:49:40;;;;;;;25.20;14.37;;;0.20;99.90;;;;;;5068024;28;20093;-75
2023/03/12 07:52:10;;;;;;;27.73;16.20;;;0.10;99.90;;;;;;5049707;28;20047;-75
2023/03/12 07:54:37;;;;;;;26.67;15.20;;;0.10;99.90;;;;;;5068319;28;20044;-74
2023/03/12 07:57:04;;;;;;;25.57;15.93;;;0.10;99.90;;;;;;5034158;28;20029;-76
2023/03/12 07:59:30;;;;;;;27.97;16.53;;;0.10;99.90;;;;;;5032818;28;20439;-75
2023/03/12 08:01:56;;;;;;;29.30;17.60;;;0.70;99.90;;;;;;5049870;28;20244;-75
2023/03/12 08:04:22;;;;;;;29.30;16.83;;;0.10;99.90;;;;;;5066965;28;20375;-75
2023/03/12 08:06:48;;;;;;;30.90;18.90;;;0.10;99.90;;;;;;5050028;28;20478;-75
2023/03/12 08:09:14;;;;;;;30.40;17.43;;;0.50;99.90;;;;;;5066160;28;20052;-75
2023/03/12 08:11:39;;;;;;;30.83;18.37;;;0.10;99.90;;;;;;5062053;28;20048;-75
2023/03/12 08:14:05;;;;;;;29.57;18.63;;;0.10;99.90;;;;;;5063847;28;20045;-76
2023/03/12 08:16:31;;;;;;;32.23;19.57;;;0.10;99.90;;;;;;5052098;28;20044;-75
2023/03/12 08:18:56;;;;;;;33.77;19.77;;;0.10;99.90;;;;;;5045447;28;20093;-75
2023/03/12 08:21:22;;;;;;;35.13;20.47;;;0.10;99.90;;;;;;5066131;28;20044;-75
2023/03/12 08:23:48;;;;;;;35.37;20.87;;;0.10;99.90;;;;;;5029962;28;20056;-75
2023/03/12 08:26:13;;;;;;;32.90;21.40;;;0.30;99.90;;;;;;5056622;28;20501;-74
2023/03/12 08:28:39;;;;;;;32.97;21.77;;;0.20;99.90;;;;;;5058901;28;20044;-76
2023/03/12 08:31:05;;;;;;;35.70;21.67;;;0.30;99.90;;;;;;5063343;28;20086;-75
2023/03/12 08:33:31;;;;;;;36.13;22.37;;;0.30;99.90;;;;;;5047283;28;20037;-75
2023/03/12 08:35:57;;;;;;;33.20;20.63;;;0.30;99.90;;;;;;5065988;28;20060;-75
2023/03/12 08:38:23;;;;;;;37.17;20.70;;;0.30;99.90;;;;;;5050390;28;20066;-75
2023/03/12 08:40:56;;;;;;;36.03;21.00;;;0.30;99.90;;;;;;5065561;28;20549;-75
2023/03/12 08:43:21;;;;;;;31.63;20.80;;;0.40;99.90;;;;;;5056077;28;20052;-75
2023/03/12 08:46:02;;;;;;;31.10;20.73;;;0.30;99.90;;;;;;5034383;28;20317;-76
2023/03/12 08:48:29;;;;;;;32.50;20.13;;;0.40;99.90;;;;;;5049851;28;20398;-76
2023/03/12 08:50:56;;;;;;;34.03;20.70;;;0.40;99.90;;;;;;5060350;28;20049;-76
2023/03/12 08:53:22;;;;;;;32.30;19.30;;;0.40;99.90;;;;;;5062004;28;20545;-76
2023/03/12 08:55:50;;;;;;;33.07;19.73;;;0.50;99.90;;;;;;5065470;28;20052;-76
2023/03/12 08:58:16;;;;;;;33.93;19.50;;;0.60;99.90;;;;;;5050074;28;20079;-76
2023/03/12 09:00:42;;;;;;;31.03;20.07;;;0.50;99.90;;;;;;5067264;28;20036;-77
2023/03/12 09:03:11;;;;;;;26.87;18.23;;;0.50;99.90;;;;;;5048631;28;20041;-76
2023/03/12 09:05:36;;;;;;;32.63;18.23;;;0.60;99.90;;;;;;5067420;28;20127;-76
2023/03/12 09:08:02;;;;;;;31.57;18.07;;;0.50;99.90;;;;;;5033890;28;20472;-76
2023/03/12 09:10:28;;;;;;;30.80;18.60;;;0.50;99.90;;;;;;5068987;28;20435;-76
2023/03/12 09:12:54;;;;;;;27.97;17.87;;;0.60;99.90;;;;;;5067588;28;20082;-76
2023/03/12 09:15:19;;;;;;;33.57;19.10;;;0.50;99.90;;;;;;5068125;28;20052;-75
2023/03/12 09:17:46;;;;;;;32.20;17.97;;;0.50;99.90;;;;;;5051533;28;20048;-76
2023/03/12 09:20:15;;;;;;;32.17;18.80;;;0.50;99.90;;;;;;5068172;28;20491;-75
2023/03/12 09:22:41;;;;;;;31.20;18.67;;;0.60;99.90;;;;;;5063560;28;20078;-76
2023/03/12 09:25:08;;;;;;;30.20;19.33;;;0.60;99.90;;;;;;5068807;28;20522;-75
2023/03/12 09:27:39;;;;;;;32.67;20.37;;;0.60;99.90;;;;;;5051152;28;20411;-75
2023/03/12 09:30:07;;;;;;;30.30;20.50;;;1.20;99.90;;;;;;5068899;28;20139;-77
2023/03/12 09:32:33;;;;;;;39.60;23.80;;;0.60;99.90;;;;;;5064932;28;20041;-75
2023/03/12 09:34:58;;;;;;;35.43;23.17;;;0.60;99.90;;;;;;5051665;28;20052;-76
2023/03/12 09:37:24;;;;;;;38.60;24.17;;;0.60;99.90;;;;;;5029817;28;20560;-75
2023/03/12 09:39:51;;;;;;;37.73;24.37;;;1.00;99.90;;;;;;5062922;28;20445;-75
2023/03/12 09:42:35;;;;;;;36.53;24.60;;;0.60;99.90;;;;;;5067077;28;20115;-75
2023/03/12 09:45:04;;;;;;;36.33;23.93;;;0.60;99.90;;;;;;5041536;28;20127;-76
2023/03/12 09:47:41;;;;;;;35.17;23.07;;;0.60;99.90;;;;;;5052223;28;20040;-76
2023/03/12 09:50:21;;;;;;;33.03;22.63;;;0.70;99.90;;;;;;5050220;28;20616;-75
2023/03/12 09:52:56;;;;;;;36.60;23.75;;;0.80;99.90;;;;;;5066793;28;20048;-77
2023/03/12 09:55:23;;;;;;;38.97;23.03;;;0.80;99.90;;;;;;5068720;28;20044;-76
2023/03/12 09:57:50;;;;;;;40.87;24.67;;;0.90;99.90;;;;;;5050518;28;20045;-75
2023/03/12 10:00:21;;;;;;;32.67;22.20;;;0.90;99.90;;;;;;5057334;28;20441;-76
2023/03/12 10:02:53;;;;;;;34.40;23.15;;;0.90;99.90;;;;;;5044710;28;20045;-76
2023/03/12 10:05:42;;;;;;;34.73;22.07;;;1.20;99.90;;;;;;5067984;28;20110;-76
2023/03/12 10:08:10;;;;;;;34.63;22.33;;;1.00;99.90;;;;;;5047816;28;20052;-76
2023/03/12 10:11:09;;;;;;;35.27;22.70;;;1.00;99.90;;;;;;5065945;28;20056;-75
2023/03/12 10:14:07;;;;;;;33.67;22.37;;;1.00;99.90;;;;;;5031547;28;20048;-75
2023/03/12 10:17:06;;;;;;;35.33;21.97;;;1.10;99.90;;;;;;5042615;28;20084;-76
2023/03/12 10:19:47;;;;;;;34.50;21.90;;;1.10;99.90;;;;;;5044297;28;20119;-76
2023/03/12 10:22:13;;;;;;;27.30;17.27;;;1.20;99.90;;;;;;5066472;28;20486;-75
2023/03/12 10:24:59;;;;;;;31.00;22.50;;;1.30;99.90;;;;;;5054314;28;20550;-75
2023/03/12 10:27:28;;;;;;;35.20;23.17;;;1.30;99.90;;;;;;5049842;28;20374;-75
2023/03/12 10:29:55;;;;;;;32.90;22.83;;;1.30;99.90;;;;;;5064791;28;20381;-75
2023/03/12 10:32:28;;;;;;;36.57;23.20;;;1.30;99.90;;;;;;5065420;28;20040;-76
2023/03/12 10:35:03;;;;;;;31.27;21.93;;;1.30;99.90;;;;;;5066165;28;20051;-75
2023/03/12 10:37:52;;;;;;;34.13;22.83;;;1.40;99.90;;;;;;5051299;28;20417;-76
2023/03/12 10:40:23;;;;;;;35.77;22.57;;;1.50;99.90;;;;;;5066122;28;20394;-76
2023/03/12 10:42:50;;;;;;;35.83;23.08;;;1.40;99.90;;;;;;5055378;28;20478;-77
2023/03/12 10:45:25;;;;;;;33.37;22.23;;;1.50;99.90;;;;;;5069805;28;20047;-76
2023/03/12 10:47:56;;;;;;;37.20;23.77;;;1.50;99.90;;;;;;5050872;28;20091;-75
2023/03/12 10:50:23;;;;;;;34.07;23.70;;;1.50;99.90;;;;;;5048840;28;20123;-75
2023/03/12 10:52:51;;;;;;;35.23;23.67;;;1.60;99.90;;;;;;5058772;28;20633;-76
2023/03/12 10:55:25;;;;;;;35.00;23.60;;;2.10;99.90;;;;;;5054031;28;20053;-76
2023/03/12 10:57:52;;;;;;;33.63;23.00;;;1.60;99.90;;;;;;5038127;28;20443;-76
2023/03/12 11:00:28;;;;;;;37.47;22.80;;;1.60;99.90;;;;;;5067463;28;20051;-76
2023/03/12 11:02:57;;;;;;;39.50;23.47;;;1.70;99.90;;;;;;5047865;28;20063;-77
2023/03/12 11:05:47;;;;;;;40.10;23.67;;;1.90;99.90;;;;;;5063155;28;20049;-76
2023/03/12 11:08:20;;;;;;;37.77;23.90;;;1.80;99.90;;;;;;5045349;28;20424;-76
2023/03/12 11:10:46;;;;;;;41.97;24.07;;;1.90;99.90;;;;;;5059793;28;20082;-76
2023/03/12 11:13:37;;;;;;;38.63;23.77;;;2.40;99.90;;;;;;5065262;28;20438;-76
2023/03/12 11:16:24;;;;;;;46.23;27.27;;;1.90;99.90;;;;;;5066467;28;20370;-76
2023/03/12 11:19:03;;;;;;;41.33;25.63;;;2.00;99.90;;;;;;5062276;28;20380;-76
2023/03/12 11:21:31;;;;;;;39.77;24.03;;;2.10;99.90;;;;;;5048570;28;20494;-76
2023/03/12 11:23:57;;;;;;;50.30;29.13;;;2.20;99.90;;;;;;5065573;28;20051;-76
2023/03/12 11:26:46;;;;;;;52.30;28.33;;;2.30;99.90;;;;;;5044378;28;20481;-77
2023/03/12 11:29:31;;;;;;;47.40;26.97;;;2.90;99.90;;;;;;5059733;28;20049;-77
2023/03/12 11:32:16;;;;;;;53.33;32.83;;;2.40;99.90;;;;;;5040596;28;20059;-77
2023/03/12 11:34:46;;;;;;;52.00;29.77;;;2.40;99.90;;;;;;5061032;28;20857;-77
2023/03/12 11:37:54;;;;;;;51.97;29.10;;;2.50;99.90;;;;;;5032970;28;20055;-77
2023/03/12 11:40:26;;;;;;;53.40;28.80;;;2.50;99.90;;;;;;5064226;28;20056;-76
2023/03/12 11:43:00;;;;;;;47.15;27.60;;;2.60;99.90;;;;;;5065259;28;20359;-76
2023/03/12 11:45:31;;;;;;;48.00;26.80;;;2.60;99.90;;;;;;5053319;28;20052;-77
2023/03/12 11:48:05;;;;;;;36.65;22.00;;;2.80;99.90;;;;;;5050077;28;20539;-77
2023/03/12 11:50:55;;;;;;;53.20;28.93;;;2.80;99.90;;;;;;5046485;28;20470;-77
2023/03/12 11:53:24;;;;;;;55.03;30.93;;;2.90;99.90;;;;;;5044333;28;20426;-77
2023/03/12 11:56:08;;;;;;;57.93;32.43;;;3.00;99.90;;;;;;5064653;28;20082;-77
2023/03/12 11:58:42;;;;;;;54.77;30.17;;;3.20;99.90;;;;;;5056240;28;20143;-77
2023/03/12 12:01:54;;;;;;;64.17;33.10;;;3.30;99.90;;;;;;5064867;28;20090;-77
2023/03/12 12:04:54;;;;;;;57.80;32.70;;;3.60;99.90;;;;;;5043359;28;20071;-77
2023/03/12 12:07:20;;;;;;;61.97;32.27;;;3.70;99.90;;;;;;5047981;28;20053;-77
2023/03/12 12:10:22;;;;;;;59.50;32.43;;;3.80;99.90;;;;;;5064477;28;20040;-77
2023/03/12 12:12:51;;;;;;;57.50;31.17;;;3.90;99.90;;;;;;5064880;28;20046;-77
2023/03/12 12:15:34;;;;;;;55.93;30.63;;;4.10;99.90;;;;;;5065862;28;20123;-77
2023/03/12 12:18:12;;;;;;;50.47;29.13;;;4.30;99.90;;;;;;5053716;28;20047;-77
2023/03/12 12:21:01;;;;;;;54.30;29.73;;;4.50;99.90;;;;;;5066221;28;20052;-77
2023/03/12 12:23:39;;;;;;;59.73;32.53;;;4.60;99.90;;;;;;5042454;28;20043;-77
2023/03/12 12:26:10;;;;;;;56.67;30.90;;;4.70;99.90;;;;;;5061343;28;20494;-78
2023/03/12 12:28:59;;;;;;;;;;;4.80;99.90;;;;;;5048334;28;20396;-77
2023/03/12 12:31:45;;;;;;;50.20;30.03;;;4.90;99.90;;;;;;5041785;28;20259;-76
2023/03/12 12:34:25;;;;;;;50.30;28.93;;;5.20;99.90;;;;;;5066478;28;20037;-77
2023/03/12 12:37:10;;;;;;;52.65;28.58;;;5.20;99.90;;;;;;5035443;28;20063;-77
2023/03/12 12:39:40;;;;;;;49.67;28.03;;;5.30;99.90;;;;;;5062864;28;20044;-77
2023/03/12 12:42:15;;;;;;;54.47;29.47;;;5.30;99.90;;;;;;5068736;28;20132;-77
2023/03/12 12:44:48;;;;;;;53.67;28.87;;;5.50;99.90;;;;;;5076983;28;20268;-77
2023/03/12 12:47:40;;;;;;;59.53;28.73;;;5.60;99.90;;;;;;5023441;28;20063;-77
2023/03/12 12:50:13;;;;;;;61.50;29.00;;;5.90;99.90;;;;;;5040230;28;20505;-78
2023/03/12 12:52:40;;;;;;;52.27;27.00;;;6.10;99.90;;;;;;5058229;28;20050;-77